Latest Coastal Weather Observations for Lucinda

IDQ60701

Issued at 5:02 pm EST Monday 26 September 2016 (issued every 10 minutes, with the page automatically refreshed every 10 minutes)

About coastal observations | Map of coastal stations | Coastal observations for QLD | Marine services | Other Formats
Station Details ID: 032141 Name: LUCINDA POINT Lat: -18.52 Lon: 146.39 Height: 10.0 m
Data from the previous 72 hours. | See also: Recent months at Lucinda
Date/Time
EST
Temp
°C
Wind Pressure Rain since
9am
mm
Weather Cloud Vis
km
Sea
Height
m
Swell
Dir  Spd
kts
Gust
kts
hPa Trend Height
m
Period
s
Dir
26/05:00pm 26.5 N 15 18 1009.5 - 0.0 - - - - - - -
26/04:30pm 26.6 N 16 18 1009.1 - 0.0 - - - - - - -
26/04:00pm 27.0 N 15 16 1009.3 - 0.0 - - - - - - -
26/03:30pm 26.8 NNE 13 16 1009.5 - 0.0 - - - - - - -
26/03:00pm 26.0 NNE 14 15 1009.6 - 0.0 - - - - - - -
26/02:30pm 26.1 NNE 11 13 1009.8 - 0.0 - - - - - - -
26/02:00pm 26.0 NE 12 13 1009.9 - 0.0 - - - - - - -
26/01:30pm 26.3 NE 8 9 1010.5 - 0.0 - - - - - - -
26/01:00pm 26.5 NE 5 8 1010.9 - 0.0 - - - - - - -
26/12:30pm 27.7 ENE 3 5 1011.4 - 0.0 - - - - - - -
26/12:00pm 27.0 ESE 3 5 1011.9 - 0.0 - - - - - - -
26/11:30am 26.7 S 3 4 1012.5 - 0.0 - - - - - - -
26/11:00am 26.1 SSE 4 5 1012.8 - 0.0 - - - - - - -
26/10:30am 26.0 S 4 5 1013.0 - 0.0 - - - - - - -
26/10:00am 25.6 SSW 4 6 1013.3 - 0.0 - - - - - - -
26/09:30am 25.1 SSW 6 7 1013.5 - 0.0 - - - - - - -
26/09:00am 24.5 SSW 5 7 1013.6 - 0.0 - - - - - - -
26/08:30am 24.0 SSW 6 7 1013.6 - 0.0 - - - - - - -
26/08:00am 23.7 SSW 6 8 1013.5 - 0.0 - - - - - - -
26/07:30am 23.4 SW 6 7 1013.1 - 0.0 - - - - - - -
26/07:00am 23.4 SW 5 7 1012.6 - 0.0 - - - - - - -
26/06:30am 23.4 SW 5 6 1012.4 - 0.0 - - - - - - -
26/06:00am 23.8 SW 6 7 1012.1 - 0.0 - - - - - - -
26/05:30am 23.9 SW 6 7 1011.8 - 0.0 - - - - - - -
26/05:00am 24.0 SW 5 6 1011.3 - 0.0 - - - - - - -
26/04:30am 24.1 SSW 4 6 1011.0 - 0.0 - - - - - - -
26/04:00am 23.9 SW 5 6 1010.9 - 0.0 - - - - - - -
26/03:30am 23.8 SW 7 7 1010.8 - 0.0 - - - - - - -
26/03:00am 23.9 WSW 8 9 1010.9 - 0.0 - - - - - - -
26/02:30am 24.0 SW 9 10 1011.0 - 0.0 - - - - - - -
26/02:00am 24.2 SW 6 7 1011.0 - 0.0 - - - - - - -
26/01:30am 24.2 WSW 10 11 1011.2 - 0.0 - - - - - - -
26/01:00am 24.6 WSW 8 8 1011.4 - 0.0 - - - - - - -
26/12:30am 25.4 WSW 4 5 1011.6 - 0.0 - - - - - - -
26/12:00am 25.2 NNW 5 7 1012.0 - 0.0 - - - - - - -
 
Date/Time
EST
Temp
°C
Wind Pressure Rain since
9am
mm
Weather Cloud Vis
km
Sea
Height
m
Swell
Dir  Spd
kts
Gust
kts
hPa Trend Height
m
Period
s
Dir
25/11:30pm 25.2 NNW 5 6 1012.1 - 0.0 - - - - - - -
25/11:00pm 25.4 NNW 7 9 1012.0 - 0.0 - - - - - - -
25/10:30pm 25.4 NNW 10 13 1011.9 - 0.0 - - - - - - -
25/10:00pm 25.3 N 9 10 1011.6 - 0.0 - - - - - - -
25/09:30pm 25.2 N 9 11 1011.5 - 0.0 - - - - - - -
25/09:00pm 25.3 N 10 13 1011.4 - 0.0 - - - - - - -
25/08:30pm 25.3 NNW 14 16 1011.0 - 0.0 - - - - - - -
25/08:00pm 25.4 N 13 16 1010.6 - 0.0 - - - - - - -
25/07:30pm 25.4 N 13 17 1010.2 - 0.0 - - - - - - -
25/07:00pm 25.5 N 15 18 1009.8 - 0.0 - - - - - - -
25/06:30pm 25.6 N 17 20 1009.4 - 0.0 - - - - - - -
25/06:00pm 25.6 N 19 21 1008.7 - 0.0 - - - - - - -
25/05:30pm 25.8 N 19 22 1008.3 - 0.0 - - - - - - -
25/05:00pm 26.0 N 20 23 1008.1 - 0.0 - - - - - - -
25/04:30pm 26.0 N 21 25 1007.7 - 0.0 - - - - - - -
25/04:00pm 26.0 N 21 25 1007.6 - 0.0 - - - - - - -
25/03:30pm 26.0 N 21 25 1007.5 - 0.0 - - - - - - -
25/03:00pm 26.1 N 21 25 1007.6 - 0.0 - - - - - - -
25/02:30pm 26.3 N 22 27 1007.7 - 0.0 - - - - - - -
25/02:00pm 26.2 N 20 24 1008.1 - 0.0 - - - - - - -
25/01:30pm 26.2 N 19 22 1008.8 - 0.0 - - - - - - -
25/01:00pm 26.2 N 17 21 1009.2 - 0.0 - - - - - - -
25/12:30pm 26.2 N 14 18 1009.8 - 0.0 - - - - - - -
25/12:00pm 26.1 N 15 19 1010.2 - 0.0 - - - - - - -
25/11:30am 26.2 N 13 16 1010.8 - 0.0 - - - - - - -
25/11:00am 26.1 N 12 15 1011.3 - 0.0 - - - - - - -
25/10:30am 26.3 N 11 13 1011.7 - 0.0 - - - - - - -
25/10:00am 26.1 N 10 13 1011.7 - 0.0 - - - - - - -
25/09:30am 26.1 N 9 11 1011.7 - 0.0 - - - - - - -
25/09:00am 27.6 ESE 3 4 1012.0 - 0.0 - - - - - - -
25/08:30am 26.8 CALM 0 0 1011.9 - 0.0 - - - - - - -
25/08:00am 24.2 WSW 4 4 1011.8 - 0.0 - - - - - - -
25/07:30am 23.8 WSW 5 6 1011.5 - 0.0 - - - - - - -
25/07:00am 23.6 WSW 5 7 1011.0 - 0.0 - - - - - - -
25/06:30am 23.9 WSW 6 7 1010.7 - 0.0 - - - - - - -
25/06:00am 24.1 SW 2 5 1010.2 - 0.0 - - - - - - -
25/05:30am 24.2 CALM 0 0 1009.7 - 0.0 - - - - - - -
25/05:00am 24.2 SW 3 4 1009.4 - 0.0 - - - - - - -
25/04:30am 24.2 WSW 4 5 1009.2 - 0.0 - - - - - - -
25/04:00am 24.7 WSW 4 5 1008.9 - 0.0 - - - - - - -
25/03:30am 25.0 WSW 3 5 1009.0 - 0.0 - - - - - - -
25/03:00am 25.3 SSW 7 8 1009.0 - 0.0 - - - - - - -
25/02:30am 25.4 NNW 9 11 1008.9 - 0.0 - - - - - - -
25/02:00am 25.4 NNW 12 14 1008.9 - 0.0 - - - - - - -
25/01:30am 25.4 NNW 17 19 1008.7 - 0.0 - - - - - - -
25/01:00am 25.4 NNW 17 20 1008.9 - 0.0 - - - - - - -
25/12:30am 25.5 NNW 18 20 1009.4 - 0.0 - - - - - - -
25/12:00am 25.5 NNW 19 23 1009.5 - 0.0 - - - - - - -
 
Date/Time
EST
Temp
°C
Wind Pressure Rain since
9am
mm
Weather Cloud Vis
km
Sea
Height
m
Swell
Dir  Spd
kts
Gust
kts
hPa Trend Height
m
Period
s
Dir
24/11:30pm 25.5 NNW 19 22 1009.7 - 0.0 - - - - - - -
24/11:00pm 25.4 NNW 16 18 1010.2 - 0.0 - - - - - - -
24/10:30pm 25.4 NNW 15 17 1010.4 - 0.0 - - - - - - -
24/10:00pm 25.5 NNW 15 18 1010.5 - 0.0 - - - - - - -
24/09:30pm 25.5 NNW 16 19 1010.5 - 0.0 - - - - - - -
24/09:00pm 25.5 NNW 14 17 1010.4 - 0.0 - - - - - - -
24/08:30pm 25.6 NNW 15 18 1010.1 - 0.0 - - - - - - -
24/08:00pm 25.5 N 14 17 1009.9 - 0.0 - - - - - - -
24/07:30pm 25.6 N 14 19 1009.5 - 0.0 - - - - - - -
24/07:00pm 25.5 N 15 19 1009.3 - 0.0 - - - - - - -
24/06:30pm 25.4 N 15 18 1008.9 - 0.0 - - - - - - -
24/06:00pm 25.6 N 16 20 1008.5 - 0.0 - - - - - - -
24/05:30pm 25.8 N 16 21 1008.3 - 0.0 - - - - - - -
24/05:00pm 26.0 N 16 19 1008.1 - 0.0 - - - - - - -
24/04:30pm 26.0 N 18 23 1007.8 - 0.0 - - - - - - -
24/04:00pm 26.2 N 18 22 1007.9 - 0.0 - - - - - - -
24/03:30pm 26.1 N 17 21 1008.1 - 0.0 - - - - - - -
24/03:00pm 26.3 N 18 20 1008.2 - 0.0 - - - - - - -
24/02:30pm 26.2 N 15 19 1008.7 - 0.0 - - - - - - -
24/02:00pm 26.2 N 20 23 1008.9 - 0.0 - - - - - - -
24/01:30pm 26.3 N 18 21 1009.5 - 0.0 - - - - - - -
24/01:00pm 26.1 N 18 21 1010.0 - 0.0 - - - - - - -
24/12:30pm 26.2 NNE 17 20 1010.5 - 0.0 - - - - - - -
24/12:00pm 26.5 N 15 19 1011.0 - 0.0 - - - - - - -
24/11:30am 26.3 NNE 15 18 1011.5 - 0.0 - - - - - - -
24/11:00am 26.7 N 15 17 1012.0 - 0.0 - - - - - - -
24/10:30am 26.8 NNE 12 16 1012.4 - 0.0 - - - - - - -
24/10:00am 26.6 N 11 13 1012.6 - 0.0 - - - - - - -
24/09:30am 26.1 N 9 11 1012.8 - 0.0 - - - - - - -
24/09:00am 26.0 N 8 10 1012.8 - 0.0 - - - - - - -
24/08:30am 27.0 CALM 0 0 1012.8 - 0.0 - - - - - - -
24/08:00am 25.2 SW 1 3 1012.4 - 0.0 - - - - - - -
24/07:30am 24.7 WSW 6 7 1012.2 - 0.0 - - - - - - -
24/07:00am 24.4 WSW 6 8 1011.7 - 0.0 - - - - - - -
24/06:30am 24.8 NW 8 11 1011.3 - 0.0 - - - - - - -
24/06:00am 24.7 NNW 9 12 1010.8 - 0.0 - - - - - - -
24/05:30am 24.8 NNW 9 11 1010.4 - 0.0 - - - - - - -
24/05:00am 24.9 NNW 9 12 1010.1 - 0.0 - - - - - - -
24/04:30am 24.9 NNW 12 14 1009.9 - 0.0 - - - - - - -
24/04:00am 25.0 NNW 12 15 1009.7 - 0.0 - - - - - - -
24/03:30am 25.0 NNW 11 14 1009.6 - 0.0 - - - - - - -
24/03:00am 25.1 NNW 12 16 1009.9 - 0.0 - - - - - - -
24/02:30am 25.2 NNW 13 17 1009.9 - 0.0 - - - - - - -
24/02:00am 25.2 NNW 18 20 1009.7 - 0.0 - - - - - - -
24/01:30am 25.2 NNW 21 23 1009.8 - 0.0 - - - - - - -
24/01:00am 25.2 NNW 19 23 1009.9 - 0.0 - - - - - - -
24/12:30am 25.3 NNW 18 22 1010.1 - 0.0 - - - - - - -
24/12:00am 25.2 NNW 19 24 1010.3 - 0.0 - - - - - - -
 
Date/Time
EST
Temp
°C
Wind Pressure Rain since
9am
mm
Weather Cloud Vis
km
Sea
Height
m
Swell
Dir  Spd
kts
Gust
kts
hPa Trend Height
m
Period
s
Dir
23/11:30pm 25.3 N 18 22 1010.3 - 0.0 - - - - - - -
23/11:00pm 25.3 N 16 21 1010.6 - 0.0 - - - - - - -
23/10:30pm 25.5 N 16 21 1010.8 - 0.0 - - - - - - -
23/10:00pm 25.4 N 15 18 1010.8 - 0.0 - - - - - - -
23/09:30pm 25.6 N 16 20 1010.8 - 0.0 - - - - - - -
23/09:00pm 25.6 N 15 19 1010.7 - 0.0 - - - - - - -
23/08:30pm 25.3 N 15 19 1010.6 - 0.0 - - - - - - -
23/08:00pm 25.3 N 16 18 1010.4 - 0.0 - - - - - - -
23/07:30pm 25.1 N 15 18 1010.4 - 0.0 - - - - - - -
23/07:00pm 25.1 N 15 17 1010.1 - 0.0 - - - - - - -
23/06:30pm 25.0 N 13 16 1009.9 - 0.0 - - - - - - -
23/06:00pm 25.3 N 14 17 1009.5 - 0.0 - - - - - - -
23/05:30pm 25.5 N 15 17 1009.1 - 0.0 - - - - - - -

Other Formats:

Comma delimited format used in spreadsheet applications
http://www.bom.gov.au/fwo/IDQ60701/IDQ60701.94295.axf

JavaScript Object Notation format (JSON) in row-major order
http://www.bom.gov.au/fwo/IDQ60701/IDQ60701.94295.json